createdAt,value
2023-03-06T00:03:48.403Z,97951.77
2023-03-06T00:08:50.916Z,97945.21
2023-03-06T00:13:58.824Z,97940.32
2023-03-06T00:19:00.583Z,97941.67
2023-03-06T00:24:02.298Z,97939.23
2023-03-06T00:29:04.151Z,97930.13
2023-03-06T00:34:05.912Z,97912.44
2023-03-06T00:39:08.184Z,97920.11
2023-03-06T00:44:10.654Z,97932.14
2023-03-06T00:49:15.099Z,97931.29
2023-03-06T00:54:36.875Z,97930.77
2023-03-06T00:59:38.575Z,97929.36
2023-03-06T01:04:40.360Z,97923.72
2023-03-06T01:09:42.053Z,97923.29
2023-03-06T01:14:43.886Z,97924.15
2023-03-06T01:19:45.577Z,97927.04
2023-03-06T01:24:48.632Z,97931.27
2023-03-06T01:29:50.323Z,97924.91
2023-03-06T01:34:52.080Z,97915.98
2023-03-06T01:39:53.762Z,97909.48
2023-03-06T01:45:06.474Z,97908.61
2023-03-06T01:50:11.895Z,97898.42
2023-03-06T01:55:18.079Z,97895.30
2023-03-06T02:00:26.034Z,97903.05
2023-03-06T02:05:27.944Z,97902.42
2023-03-06T02:10:30.144Z,97895.46
2023-03-06T02:15:31.999Z,97893.88
2023-03-06T02:20:40.290Z,97892.11
2023-03-06T02:25:50.478Z,97887.39
2023-03-06T02:30:54.935Z,97886.64
2023-03-06T02:36:03.439Z,97888.02
2023-03-06T02:41:08.251Z,97886.77
2023-03-06T02:46:10.261Z,97888.46
2023-03-06T02:51:12.306Z,97882.71
2023-03-06T02:56:15.353Z,97880.09
2023-03-06T03:01:17.765Z,97883.17
2023-03-06T03:06:19.918Z,97887.35
2023-03-06T03:11:21.986Z,97884.23
2023-03-06T03:16:23.931Z,97879.98
2023-03-06T03:21:26.126Z,97879.52
2023-03-06T03:26:29.045Z,97876.16
2023-03-06T03:31:35.513Z,97867.52
2023-03-06T03:36:38.136Z,97863.21
2023-03-06T03:41:41.332Z,97858.58
2023-03-06T03:46:44.107Z,97850.45
2023-03-06T03:51:50.258Z,97851.38
2023-03-06T03:56:52.958Z,97850.98
2023-03-06T04:01:59.460Z,97840.33
2023-03-06T04:07:02.349Z,97835.27
2023-03-06T04:12:04.330Z,97833.33
2023-03-06T04:17:07.101Z,97826.52
2023-03-06T04:22:09.172Z,97817.39
2023-03-06T04:27:12.111Z,97822.70
2023-03-06T04:32:14.949Z,97817.27
2023-03-06T04:37:20.981Z,97810.30
2023-03-06T04:42:23.168Z,97804.98
2023-03-06T04:47:24.960Z,97805.03
2023-03-06T04:52:26.646Z,97806.66
2023-03-06T04:57:28.294Z,97797.33
2023-03-06T05:02:30.302Z,97796.23
2023-03-06T05:07:32.140Z,97780.90
2023-03-06T05:12:38.037Z,97765.02
2023-03-06T05:17:40.165Z,97774.30
2023-03-06T05:22:42.418Z,97771.76
2023-03-06T05:27:44.128Z,97768.81
2023-03-06T05:32:45.882Z,97768.77
2023-03-06T05:37:48.679Z,97767.64
2023-03-06T05:42:50.651Z,97762.36
2023-03-06T05:47:52.359Z,97767.25
2023-03-06T05:52:54.365Z,97764.88
2023-03-06T05:57:56.186Z,97766.27
2023-03-06T06:03:01.128Z,97767.16
2023-03-06T06:08:03.142Z,97765.41
2023-03-06T06:13:05.335Z,97769.98
2023-03-06T06:18:07.083Z,97771.05
2023-03-06T06:23:11.423Z,97768.98
2023-03-06T06:28:13.159Z,97771.41
2023-03-06T06:33:14.830Z,97772.38
2023-03-06T06:38:16.770Z,97774.65
2023-03-06T06:43:18.425Z,97768.89
2023-03-06T06:48:20.204Z,97773.06
2023-03-06T06:53:22.096Z,97778.09
2023-03-06T06:58:23.948Z,97779.39
2023-03-06T07:03:25.632Z,97787.27
2023-03-06T07:08:27.934Z,97785.54
2023-03-06T07:13:29.863Z,97788.23
2023-03-06T07:18:31.649Z,97789.59
2023-03-06T07:23:33.454Z,97791.73
2023-03-06T07:28:46.290Z,97790.56
2023-03-06T07:33:54.822Z,97788.49
2023-03-06T07:38:56.566Z,97787.24
2023-03-06T07:43:58.587Z,97789.82
2023-03-06T07:49:00.302Z,97791.02
2023-03-06T07:54:02.072Z,97795.82
2023-03-06T07:59:03.994Z,97797.44
2023-03-06T08:04:06.276Z,97797.41
2023-03-06T08:09:08.144Z,97796.07
2023-03-06T08:14:09.848Z,97793.27
2023-03-06T08:19:11.557Z,97789.19
2023-03-06T08:24:16.603Z,97790.90
2023-03-06T08:29:18.723Z,97787.39
2023-03-06T08:34:24.321Z,97792.27
2023-03-06T08:39:26.130Z,97793.31
2023-03-06T08:44:27.835Z,97793.70
2023-03-06T08:49:30.133Z,97792.06
2023-03-06T08:54:34.175Z,97792.52
2023-03-06T08:59:37.140Z,97801.78
2023-03-06T09:04:38.823Z,97801.38
2023-03-06T09:09:40.797Z,97799.44
2023-03-06T09:14:42.483Z,97800.38
2023-03-06T09:19:44.372Z,97797.74
2023-03-06T09:24:46.413Z,97798.14
2023-03-06T09:29:48.968Z,97788.92
2023-03-06T09:34:50.709Z,97784.91
2023-03-06T09:39:52.476Z,97783.23
2023-03-06T09:44:58.301Z,97780.02
2023-03-06T09:50:24.366Z,97780.08
2023-03-06T09:55:31.205Z,97784.67
2023-03-06T10:00:44.279Z,97777.20
2023-03-06T10:05:53.852Z,97773.01
2023-03-06T10:11:18.508Z,97769.92
2023-03-06T10:16:30.611Z,97767.64
2023-03-06T10:22:00.141Z,97757.14
2023-03-06T10:27:27.070Z,97756.30
2023-03-06T10:32:48.564Z,97747.63
2023-03-06T10:37:51.025Z,97738.11
2023-03-06T10:43:05.110Z,97735.71
2023-03-06T10:48:19.753Z,97737.35
2023-03-06T10:53:29.017Z,97735.04
2023-03-06T10:58:32.614Z,97726.27
2023-03-06T11:03:36.602Z,97727.09
2023-03-06T11:08:39.836Z,97722.85
2023-03-06T11:13:43.756Z,97716.27
2023-03-06T11:18:56.757Z,97708.69
2023-03-06T11:24:14.283Z,97700.09
2023-03-06T11:29:47.221Z,97689.40
2023-03-06T11:34:59.785Z,97686.04
2023-03-06T11:40:11.972Z,97661.59
2023-03-06T11:45:37.368Z,97670.86
2023-03-06T11:51:06.395Z,97655.47
2023-03-06T11:56:43.720Z,97642.56
2023-03-06T12:01:48.183Z,97633.94
2023-03-06T12:07:31.802Z,97628.83
2023-03-06T12:13:12.522Z,97618.64
2023-03-06T12:18:41.499Z,97613.88
2023-03-06T12:24:02.479Z,97612.04
2023-03-06T12:30:01.887Z,97609.27
2023-03-06T12:35:35.665Z,97607.98
2023-03-06T12:40:55.585Z,97598.86
2023-03-06T12:46:03.586Z,97592.29
2023-03-06T12:51:07.480Z,97586.20
2023-03-06T12:56:13.414Z,97584.53
2023-03-06T13:01:52.590Z,97581.83
2023-03-06T13:07:22.788Z,97581.42
2023-03-06T13:12:36.398Z,97574.36
2023-03-06T13:17:38.714Z,97566.23
2023-03-06T13:22:42.619Z,97570.77
2023-03-06T13:27:53.354Z,97563.55
2023-03-06T13:32:56.144Z,97565.65
2023-03-06T13:38:00.976Z,97561.98
2023-03-06T13:43:15.754Z,97560.39
2023-03-06T13:48:43.073Z,97558.24
2023-03-06T13:54:04.120Z,97554.52
2023-03-06T13:59:31.967Z,97559.44
2023-03-06T14:04:46.197Z,97569.63
2023-03-06T14:09:56.108Z,97587.98
2023-03-06T14:15:12.232Z,97598.77
2023-03-06T14:20:17.669Z,97599.90
2023-03-06T14:25:31.406Z,97596.98
2023-03-06T14:30:33.427Z,97592.01
2023-03-06T14:35:35.187Z,97593.83
2023-03-06T14:40:44.975Z,97582.98
2023-03-06T14:45:57.775Z,97580.63
2023-03-06T14:50:59.473Z,97583.52
2023-03-06T14:56:06.043Z,97581.28
2023-03-06T15:01:16.092Z,97576.98
2023-03-06T15:06:35.805Z,97575.23
2023-03-06T15:12:04.915Z,97573.80
2023-03-06T15:17:19.201Z,97571.89
2023-03-06T15:22:25.346Z,97577.23
2023-03-06T15:27:30.496Z,97572.07
2023-03-06T15:32:34.867Z,97567.81
2023-03-06T15:37:36.581Z,97565.09
2023-03-06T15:42:38.287Z,97566.23
2023-03-06T15:47:39.945Z,97565.70
2023-03-06T15:52:41.825Z,97568.70
2023-03-06T15:57:56.985Z,97562.87
2023-03-06T16:02:59.051Z,97565.30
2023-03-06T16:08:00.727Z,97566.54
2023-03-06T16:13:06.688Z,97567.27
2023-03-06T16:18:11.686Z,97566.27
2023-03-06T16:23:15.041Z,97564.77
2023-03-06T16:28:17.017Z,97566.02
2023-03-06T16:33:18.693Z,97562.76
2023-03-06T16:38:20.355Z,97563.22
2023-03-06T16:43:22.079Z,97557.84
2023-03-06T16:48:23.844Z,97543.08
2023-03-06T16:53:25.750Z,97552.27
2023-03-06T16:58:29.938Z,97554.61
2023-03-06T17:03:31.629Z,97555.84
2023-03-06T17:08:33.324Z,97558.75
2023-03-06T17:13:35.087Z,97561.23
2023-03-06T17:18:36.797Z,97566.17
2023-03-06T17:23:38.752Z,97562.61
2023-03-06T17:28:41.656Z,97569.35
2023-03-06T17:33:44.005Z,97567.95
2023-03-06T17:38:46.026Z,97568.30
2023-03-06T17:43:47.797Z,97569.30
2023-03-06T17:48:49.528Z,97572.67
2023-03-06T17:53:52.254Z,97571.64
2023-03-06T17:58:54.058Z,97567.94
2023-03-06T18:03:56.443Z,97567.84
2023-03-06T18:08:58.474Z,97573.39
2023-03-06T18:14:00.196Z,97574.52
2023-03-06T18:19:02.293Z,97575.13
2023-03-06T18:24:04.161Z,97579.05
2023-03-06T18:29:06.056Z,97580.92
2023-03-06T18:34:10.990Z,97576.50
2023-03-06T18:39:14.035Z,97579.13
2023-03-06T18:44:17.623Z,97578.38
2023-03-06T18:49:19.509Z,97576.59
2023-03-06T18:54:21.584Z,97577.20
2023-03-06T18:59:23.708Z,97578.97
2023-03-06T19:04:26.165Z,97575.54
2023-03-06T19:09:28.047Z,97577.71
2023-03-06T19:14:30.203Z,97578.58
2023-03-06T19:19:32.078Z,97572.06
2023-03-06T19:24:34.151Z,97570.92
2023-03-06T19:29:36.282Z,97570.67
2023-03-06T19:34:37.960Z,97573.67
2023-03-06T19:39:39.686Z,97573.77
2023-03-06T19:44:41.498Z,97548.96
2023-03-06T19:49:43.507Z,97573.73
2023-03-06T19:54:47.225Z,97578.48
2023-03-06T19:59:51.365Z,97577.19
2023-03-06T20:04:54.567Z,97577.48
2023-03-06T20:10:00.414Z,97578.98
2023-03-06T20:15:03.714Z,97579.75
2023-03-06T20:20:06.098Z,97576.64
2023-03-06T20:25:10.685Z,97583.09
2023-03-06T20:30:12.552Z,97588.08
2023-03-06T20:35:14.255Z,97584.26
2023-03-06T20:40:16.036Z,97583.42
2023-03-06T20:45:17.803Z,97584.09
2023-03-06T20:50:19.457Z,97583.19
2023-03-06T20:55:21.363Z,97577.00
2023-03-06T21:00:23.026Z,97579.02
2023-03-06T21:05:24.738Z,97576.39
2023-03-06T21:10:26.509Z,97579.38
2023-03-06T21:15:30.054Z,97575.33
2023-03-06T21:20:33.686Z,97568.90
2023-03-06T21:25:35.451Z,97572.08
2023-03-06T21:30:37.170Z,97571.65
2023-03-06T21:35:41.400Z,97575.63
2023-03-06T21:40:44.679Z,97576.00
2023-03-06T21:45:48.061Z,97572.71
2023-03-06T21:50:49.748Z,97574.98
2023-03-06T21:55:51.491Z,97574.56
2023-03-06T22:00:53.712Z,97575.14
2023-03-06T22:05:56.669Z,97573.80
2023-03-06T22:10:59.056Z,97566.15
2023-03-06T22:16:07.793Z,97565.23
2023-03-06T22:21:12.199Z,97565.06
2023-03-06T22:26:15.440Z,97564.72
2023-03-06T22:31:26.307Z,97561.17
2023-03-06T22:36:32.718Z,97560.92
2023-03-06T22:41:35.620Z,97562.00
2023-03-06T22:46:57.839Z,97555.48
2023-03-06T22:52:19.686Z,97555.08
2023-03-06T22:57:21.659Z,97554.02
2023-03-06T23:02:23.535Z,97553.39
2023-03-06T23:07:25.330Z,97554.41
2023-03-06T23:12:35.643Z,97554.48
2023-03-06T23:17:57.020Z,97556.99
2023-03-06T23:23:18.099Z,97558.17
2023-03-06T23:28:20.118Z,97555.17
2023-03-06T23:33:22.467Z,97562.42
2023-03-06T23:38:24.143Z,97563.29
2023-03-06T23:43:25.874Z,97561.56
2023-03-06T23:48:27.883Z,97560.59
2023-03-06T23:53:29.580Z,97557.13
2023-03-06T23:58:31.834Z,97554.23
